WetterOnline ( https://www.wetteronline.de )

Wetter aktuell Aue

Aktuelles Wetter: Fichtelberg (1215m)

6-stündlich | Neueste Meldungen
Ortszeit Temperatur Wetter
Fr, 27.05. 20:00 6.1° C Nebel
Fr, 27.05. 14:00 6.2° C leichter Regen
Fr, 27.05. 8:00 8.5° C bewölkt
Fr, 27.05. 2:00 8.5° C bedeckt
Do, 26.05. 20:00 10.0° C bedeckt
Do, 26.05. 14:00 11.9° C bewölkt
Do, 26.05. 8:00 7.9° C leicht bewölkt
Do, 26.05. 2:00 7.0° C fast wolkenlos
Ortszeit Temperatur Wetter
Fr, 27.05. 23:30 3.8° C bewölkt
Fr, 27.05. 23:20 3.8° C bewölkt
Fr, 27.05. 23:10 3.8° C bewölkt
Fr, 27.05. 23:00 3.8° C bewölkt
Fr, 27.05. 22:50 3.8° C bewölkt
Fr, 27.05. 22:40 4.0° C bewölkt
Fr, 27.05. 22:30 4.0° C bewölkt
Fr, 27.05. 22:00 4.2° C wolkig
Fr, 27.05. 21:30 4.8° C bewölkt
Fr, 27.05. 21:00 5.2° C bedeckt
Fr, 27.05. 20:30 5.5° C bedeckt
Ortszeit Relative Feuchte Sichtweite
Fr, 27.05. 20:00 92% 35 km
Fr, 27.05. 14:00 99% 100 m
Fr, 27.05. 8:00 91% 40 km
Fr, 27.05. 2:00 84% 65 km
Do, 26.05. 20:00 76% >70 km
Do, 26.05. 14:00 63% 65 km
Do, 26.05. 8:00 76% 65 km
Do, 26.05. 2:00 71% >70 km
Ortszeit Relative Feuchte Sichtweite
Fr, 27.05. 23:30 91% 45 km
Fr, 27.05. 23:20 91% -
Fr, 27.05. 23:10 91% -
Fr, 27.05. 23:00 92% 40 km
Fr, 27.05. 22:50 92% -
Fr, 27.05. 22:40 91% -
Fr, 27.05. 22:30 90% 45 km
Fr, 27.05. 22:00 89% 45 km
Fr, 27.05. 21:30 88% 50 km
Fr, 27.05. 21:00 89% 50 km
Fr, 27.05. 20:30 89% 45 km
Ortszeit Niederschlagsmenge Niederschlagsart
Fr, 27.05. 20:00 9 l/m2 in 12 Std. Regen
Fr, 27.05. 14:00 5 l/m2 in 6 Std. Regen
Fr, 27.05. 8:00 0.0 l/m2 in 12 Std. -
Fr, 27.05. 2:00 0.0 l/m2 in 6 Std. -
Do, 26.05. 20:00 0.0 l/m2 in 12 Std. -
Do, 26.05. 14:00 0.0 l/m2 in 6 Std. -
Do, 26.05. 8:00 0.0 l/m2 in 12 Std. -
Do, 26.05. 2:00 0.0 l/m2 in 6 Std. -
Ortszeit Niederschlagsmenge Niederschlagsart
Fr, 27.05. 23:30 0.0 l/m2 in 1 Std. -
Fr, 27.05. 23:20 keine Meldung -
Fr, 27.05. 23:10 keine Meldung -
Fr, 27.05. 23:00 0.0 l/m2 in 1 Std. -
Fr, 27.05. 22:50 keine Meldung -
Fr, 27.05. 22:40 keine Meldung -
Fr, 27.05. 22:30 0.0 l/m2 in 1 Std. -
Fr, 27.05. 22:00 0.0 l/m2 in 1 Std. -
Fr, 27.05. 21:30 0.0 l/m2 in 1 Std. -
Fr, 27.05. 21:00 0.0 l/m2 in 1 Std. -
Fr, 27.05. 20:30 0.0 l/m2 in 1 Std. -
Ortszeit Stärke Spitze Richtung
km/h Bft. km/h Grad Sektor
Fr, 27.05. 20:00 40 6 72 300° NW
Fr, 27.05. 14:00 40 6 68 290° W
Fr, 27.05. 8:00 47 6 65 280° W
Fr, 27.05. 2:00 44 6 67 270° W
Do, 26.05. 20:00 33 5 65 270° W
Do, 26.05. 14:00 50 7 65 280° W
Do, 26.05. 8:00 44 6 65 270° W
Do, 26.05. 2:00 43 6 54 270° W
Ortszeit Stärke Spitze Richtung
km/h Bft. km/h Grad Sektor
Fr, 27.05. 23:30 46 6 59 290° W
Fr, 27.05. 23:20 46 6 - 290° W
Fr, 27.05. 23:10 43 6 - 290° W
Fr, 27.05. 23:00 39 6 54 290° W
Fr, 27.05. 22:50 39 6 - 290° W
Fr, 27.05. 22:40 40 6 - 290° W
Fr, 27.05. 22:30 40 6 54 290° W
Fr, 27.05. 22:00 40 6 54 290° W
Fr, 27.05. 21:30 40 6 54 300° NW
Fr, 27.05. 21:00 39 6 61 300° NW
Fr, 27.05. 20:30 44 6 61 300° NW
Ortszeit Untergrenze Bedeckung Gattung
total tief tief mittel hoch
Fr, 27.05. 20:00 810 m 7/8 7/8 - - -
Fr, 27.05. 14:00 <30 m 8/8 0/8 - - -
Fr, 27.05. 8:00 120 m 7/8 7/8 - - -
Fr, 27.05. 2:00 630 m 8/8 8/8 - - -
Do, 26.05. 20:00 660 m 8/8 8/8 - - -
Do, 26.05. 14:00 660 m 7/8 7/8 - - -
Do, 26.05. 8:00 1230 m 7/8 1/8 - - -
Do, 26.05. 2:00 8700 m 2/8 0/8 - - -
Ortszeit Bedeckungsgrad in Achtel und Wolkenuntergrenze
Fr, 27.05. 23:30 7(990m) 7(1200m)
Fr, 27.05. 23:20 7(990m) 7(1200m)
Fr, 27.05. 23:10 7
Fr, 27.05. 23:00 7(1110m)
Fr, 27.05. 22:50 7(1110m)
Fr, 27.05. 22:40 7
Fr, 27.05. 22:30 6(1050m) 7(1260m)
Fr, 27.05. 22:00 5(1050m)
Fr, 27.05. 21:30 7(1080m)
Fr, 27.05. 21:00 8(1080m)
Fr, 27.05. 20:30 6(930m) 8(1170m)
Ortszeit Stationsdruck (hPa) Tendenz (hPa in 3 Std.)
Fr, 27.05. 20:00 879 + 0,4
Fr, 27.05. 14:00 880 - 0,4
Fr, 27.05. 8:00 880 - 0,6
Fr, 27.05. 2:00 882 - 1,0
Do, 26.05. 20:00 883 - 0,3
Do, 26.05. 14:00 883 + 0,5
Do, 26.05. 8:00 881 + 0,6
Do, 26.05. 2:00 881 0,0
Ortszeit Stationsdruck (hPa) Tendenz (hPa in 3 Std.)
Fr, 27.05. 23:30 879 + 0,1
Fr, 27.05. 23:20 879 keine Meldung
Fr, 27.05. 23:10 879 keine Meldung
Fr, 27.05. 23:00 879 + 0,4
Fr, 27.05. 22:50 879 keine Meldung
Fr, 27.05. 22:40 879 keine Meldung
Fr, 27.05. 22:30 879 + 0,5
Fr, 27.05. 22:00 879 + 0,8
Fr, 27.05. 21:30 879 + 0,8
Fr, 27.05. 21:00 879 + 0,9
Fr, 27.05. 20:30 879 + 0,8
Ortszeit Schneehöhe (cm)
Fr, 27.05. 20:00 0
Fr, 27.05. 14:00 0
Fr, 27.05. 8:00 0
Fr, 27.05. 2:00 0
Do, 26.05. 20:00 0
Do, 26.05. 14:00 0
Do, 26.05. 8:00 0
Do, 26.05. 2:00 0
Ortszeit Schneehöhe (cm)
Fr, 27.05. 23:30 0
Fr, 27.05. 23:20 0
Fr, 27.05. 23:10 0
Fr, 27.05. 23:00 0
Fr, 27.05. 22:50 0
Fr, 27.05. 22:40 0
Fr, 27.05. 22:30 0
Fr, 27.05. 22:00 0
Fr, 27.05. 21:30 0
Fr, 27.05. 21:00 0
Fr, 27.05. 20:30 0
Link zu dieser Seite / Seite empfehlen

Das Wetter in ...